createdAt,value
2023-04-16T00:02:02.132Z,9.50
2023-04-16T00:04:29.514Z,9.50
2023-04-16T00:06:58.413Z,9.50
2023-04-16T00:09:25.369Z,9.50
2023-04-16T00:11:52.443Z,9.50
2023-04-16T00:14:19.371Z,9.50
2023-04-16T00:16:46.838Z,9.40
2023-04-16T00:19:13.803Z,9.40
2023-04-16T00:21:40.932Z,9.40
2023-04-16T00:24:08.120Z,9.40
2023-04-16T00:26:35.246Z,9.40
2023-04-16T00:29:02.133Z,9.40
2023-04-16T00:31:30.056Z,9.40
2023-04-16T00:33:57.929Z,9.30
2023-04-16T00:36:25.475Z,9.30
2023-04-16T00:38:52.658Z,9.30
2023-04-16T00:41:19.894Z,9.30
2023-04-16T00:43:46.877Z,9.30
2023-04-16T00:46:13.959Z,9.30
2023-04-16T00:48:41.894Z,9.30
2023-04-16T00:51:11.884Z,9.30
2023-04-16T00:53:38.953Z,9.40
2023-04-16T00:56:06.863Z,9.40
2023-04-16T00:58:34.610Z,9.40
2023-04-16T01:01:02.142Z,9.40
2023-04-16T01:03:35.019Z,9.30
2023-04-16T01:06:02.567Z,9.30
2023-04-16T01:08:29.721Z,9.40
2023-04-16T01:10:56.616Z,9.30
2023-04-16T01:13:23.519Z,9.40
2023-04-16T01:15:50.672Z,9.30
2023-04-16T01:18:18.081Z,9.30
2023-04-16T01:20:45.628Z,9.30
2023-04-16T01:23:12.707Z,9.30
2023-04-16T01:25:39.697Z,9.30
2023-04-16T01:28:07.056Z,9.30
2023-04-16T01:30:34.014Z,9.30
2023-04-16T01:33:14.975Z,9.30
2023-04-16T01:35:42.164Z,9.30
2023-04-16T01:38:18.794Z,9.30
2023-04-16T01:40:46.556Z,9.30
2023-04-16T01:43:13.505Z,9.30
2023-04-16T01:45:40.488Z,9.30
2023-04-16T01:48:07.372Z,9.30
2023-04-16T01:50:34.857Z,9.30
2023-04-16T01:53:05.049Z,9.30
2023-04-16T01:55:33.556Z,9.30
2023-04-16T01:58:00.540Z,9.30
2023-04-16T02:00:31.231Z,9.30
2023-04-16T02:02:59.514Z,9.30
2023-04-16T02:05:28.366Z,9.30
2023-04-16T02:07:55.341Z,9.20
2023-04-16T02:10:22.255Z,9.20
2023-04-16T02:12:49.714Z,9.20
2023-04-16T02:15:16.954Z,9.20
2023-04-16T02:17:46.820Z,9.20
2023-04-16T02:20:13.821Z,9.20
2023-04-16T02:22:51.576Z,9.20
2023-04-16T02:25:21.278Z,9.20
2023-04-16T02:27:48.187Z,9.20
2023-04-16T02:30:31.264Z,9.20
2023-04-16T02:32:58.296Z,9.20
2023-04-16T02:35:25.465Z,9.20
2023-04-16T02:37:52.373Z,9.20
2023-04-16T02:40:19.367Z,9.20
2023-04-16T02:42:46.328Z,9.20
2023-04-16T02:45:13.486Z,9.20
2023-04-16T02:47:40.506Z,9.20
2023-04-16T02:50:08.468Z,9.20
2023-04-16T02:52:35.353Z,9.20
2023-04-16T02:55:02.276Z,9.20
2023-04-16T02:57:29.210Z,9.20
2023-04-16T02:59:56.093Z,9.20
2023-04-16T03:02:23.124Z,9.20
2023-04-16T03:04:50.102Z,9.20
2023-04-16T03:07:18.412Z,9.30
2023-04-16T03:09:45.707Z,9.20
2023-04-16T03:12:12.660Z,9.20
2023-04-16T03:14:39.598Z,9.20
2023-04-16T03:17:06.779Z,9.20
2023-04-16T03:19:33.750Z,9.20
2023-04-16T03:22:00.690Z,9.20
2023-04-16T03:24:28.245Z,9.20
2023-04-16T03:26:57.249Z,9.20
2023-04-16T03:29:24.592Z,9.20
2023-04-16T03:31:51.531Z,9.20
2023-04-16T03:34:18.448Z,9.30
2023-04-16T03:36:46.455Z,9.20
2023-04-16T03:39:13.621Z,9.30
2023-04-16T03:41:41.207Z,9.20
2023-04-16T03:44:08.104Z,9.30
2023-04-16T03:46:35.557Z,9.30
2023-04-16T03:49:02.444Z,9.30
2023-04-16T03:51:29.323Z,9.30
2023-04-16T03:53:56.562Z,9.30
2023-04-16T03:56:24.522Z,9.30
2023-04-16T03:58:52.730Z,9.30
2023-04-16T04:01:19.676Z,9.20
2023-04-16T04:03:47.201Z,9.20
2023-04-16T04:06:15.123Z,9.20
2023-04-16T04:08:42.894Z,9.20
2023-04-16T04:11:10.219Z,9.20
2023-04-16T04:13:38.981Z,9.20
2023-04-16T04:16:06.328Z,9.20
2023-04-16T04:18:33.619Z,9.20
2023-04-16T04:21:04.675Z,9.20
2023-04-16T04:23:31.738Z,9.10
2023-04-16T04:25:59.531Z,9.10
2023-04-16T04:28:26.673Z,9.10
2023-04-16T04:30:53.606Z,9.10
2023-04-16T04:33:20.530Z,9.10
2023-04-16T04:35:48.041Z,9.10
2023-04-16T04:38:19.786Z,9.10
2023-04-16T04:40:51.436Z,9.10
2023-04-16T04:43:22.620Z,9.10
2023-04-16T04:45:50.465Z,9.10
2023-04-16T04:48:17.851Z,9.10
2023-04-16T04:50:45.694Z,9.10
2023-04-16T04:53:14.869Z,9.10
2023-04-16T04:55:42.129Z,9.10
2023-04-16T04:58:09.371Z,9.10
2023-04-16T05:00:37.249Z,9.10
2023-04-16T05:03:05.631Z,9.10
2023-04-16T05:05:32.586Z,9.20
2023-04-16T05:07:59.503Z,9.20
2023-04-16T05:10:26.694Z,9.20
2023-04-16T05:12:53.617Z,9.20
2023-04-16T05:15:20.717Z,9.20
2023-04-16T05:17:47.716Z,9.20
2023-04-16T05:20:14.821Z,9.20
2023-04-16T05:22:41.814Z,9.20
2023-04-16T05:25:08.839Z,9.20
2023-04-16T05:27:36.420Z,9.30
2023-04-16T05:30:03.679Z,9.30
2023-04-16T05:32:30.692Z,9.30
2023-04-16T05:34:57.533Z,9.30
2023-04-16T05:37:24.388Z,9.30
2023-04-16T05:39:51.360Z,9.30
2023-04-16T05:42:18.316Z,9.30
2023-04-16T05:44:45.278Z,9.30
2023-04-16T05:47:12.106Z,9.30
2023-04-16T05:49:38.966Z,9.30
2023-04-16T05:52:06.316Z,9.30
2023-04-16T05:54:33.235Z,9.30
2023-04-16T05:57:01.157Z,9.30
2023-04-16T05:59:29.320Z,9.30
2023-04-16T06:01:56.837Z,9.30
2023-04-16T06:04:23.874Z,9.30
2023-04-16T06:06:50.916Z,9.30
2023-04-16T06:09:18.501Z,9.30
2023-04-16T06:11:45.669Z,9.30
2023-04-16T06:14:12.758Z,9.30
2023-04-16T06:16:39.635Z,9.30
2023-04-16T06:19:06.532Z,9.40
2023-04-16T06:21:33.582Z,9.40
2023-04-16T06:24:00.802Z,9.40
2023-04-16T06:26:27.764Z,9.40
2023-04-16T06:28:54.661Z,9.40
2023-04-16T06:31:21.895Z,9.40
2023-04-16T06:33:48.888Z,9.50
2023-04-16T06:36:16.856Z,9.50
2023-04-16T06:38:44.720Z,9.50
2023-04-16T06:41:11.686Z,9.50
2023-04-16T06:43:38.610Z,9.60
2023-04-16T06:46:05.913Z,9.60
2023-04-16T06:48:32.821Z,9.70
2023-04-16T06:51:00.200Z,9.80
2023-04-16T06:53:27.148Z,9.80
2023-04-16T06:55:54.029Z,9.90
2023-04-16T07:00:49.596Z,10.00
2023-04-16T07:03:16.719Z,10.10
2023-04-16T07:05:43.764Z,10.10
2023-04-16T07:08:11.013Z,10.10
2023-04-16T07:10:38.469Z,10.20
2023-04-16T07:13:05.626Z,10.20
2023-04-16T07:15:32.792Z,10.30
2023-04-16T07:17:59.712Z,10.30
2023-04-16T07:20:26.826Z,10.40
2023-04-16T07:22:53.800Z,10.40
2023-04-16T07:25:20.750Z,10.40
2023-04-16T07:27:47.708Z,10.50
2023-04-16T07:30:14.562Z,10.50
2023-04-16T07:32:41.606Z,10.50
2023-04-16T07:35:08.788Z,10.50
2023-04-16T07:37:35.811Z,10.50
2023-04-16T07:40:02.805Z,10.50
2023-04-16T07:42:29.733Z,10.50
2023-04-16T07:44:56.869Z,10.50
2023-04-16T07:47:23.885Z,10.50
2023-04-16T07:49:50.919Z,10.50
2023-04-16T07:52:17.913Z,10.50
2023-04-16T07:54:44.835Z,10.60
2023-04-16T07:57:12.343Z,10.70
2023-04-16T07:59:39.243Z,10.70
2023-04-16T08:02:06.432Z,10.70
2023-04-16T08:04:33.688Z,10.80
2023-04-16T08:07:00.851Z,10.70
2023-04-16T08:09:28.840Z,10.80
2023-04-16T08:11:55.851Z,10.80
2023-04-16T08:14:23.380Z,10.80
2023-04-16T08:16:50.379Z,10.70
2023-04-16T08:19:17.610Z,10.70
2023-04-16T08:21:44.746Z,10.70
2023-04-16T08:24:11.930Z,10.70
2023-04-16T08:26:42.988Z,10.60
2023-04-16T08:29:10.272Z,10.60
2023-04-16T08:31:37.563Z,10.50
2023-04-16T08:34:04.598Z,10.60
2023-04-16T08:36:31.552Z,10.60
2023-04-16T08:38:58.399Z,10.60
2023-04-16T08:41:26.815Z,10.70
2023-04-16T08:46:22.721Z,10.70
2023-04-16T08:48:52.559Z,10.80
2023-04-16T08:51:20.083Z,10.70
2023-04-16T08:53:53.484Z,10.70
2023-04-16T08:56:21.570Z,10.70
2023-04-16T08:58:50.174Z,10.70
2023-04-16T09:01:20.929Z,10.80
2023-04-16T09:03:48.566Z,10.80
2023-04-16T09:06:16.469Z,10.90
2023-04-16T09:08:44.718Z,10.90
2023-04-16T09:11:13.346Z,11.00
2023-04-16T09:13:40.365Z,11.10
2023-04-16T09:16:08.053Z,11.10
2023-04-16T09:18:35.054Z,11.20
2023-04-16T09:21:02.013Z,11.30
2023-04-16T09:23:29.817Z,11.40
2023-04-16T09:25:58.666Z,11.50
2023-04-16T09:28:44.694Z,11.60
2023-04-16T09:31:15.771Z,11.60
2023-04-16T09:33:43.416Z,11.70
2023-04-16T09:36:11.037Z,11.70
2023-04-16T09:38:51.395Z,11.70
2023-04-16T09:41:18.737Z,11.70
2023-04-16T09:43:59.000Z,11.80
2023-04-16T09:46:34.112Z,11.70
2023-04-16T09:49:11.129Z,11.80
2023-04-16T09:51:38.716Z,11.70
2023-04-16T09:54:06.157Z,11.70
2023-04-16T09:56:33.123Z,11.70
2023-04-16T09:59:00.511Z,11.80
2023-04-16T10:01:27.581Z,11.80
2023-04-16T10:03:56.230Z,11.90
2023-04-16T10:06:25.547Z,11.90
2023-04-16T10:08:53.471Z,11.80
2023-04-16T10:11:21.316Z,11.90
2023-04-16T10:13:48.622Z,12.00
2023-04-16T10:16:15.930Z,12.10
2023-04-16T10:18:43.959Z,12.30
2023-04-16T10:21:15.412Z,12.40
2023-04-16T10:23:43.789Z,12.60
2023-04-16T10:26:11.206Z,12.70
2023-04-16T10:28:38.107Z,12.70
2023-04-16T10:31:08.897Z,12.70
2023-04-16T10:33:36.597Z,12.70
2023-04-16T10:36:29.771Z,12.60
2023-04-16T10:39:00.841Z,12.60
2023-04-16T10:41:27.951Z,12.60
2023-04-16T10:44:05.826Z,12.60
2023-04-16T10:46:32.895Z,12.60
2023-04-16T10:49:12.498Z,12.70
2023-04-16T10:51:39.522Z,12.60
2023-04-16T10:54:09.236Z,12.60
2023-04-16T10:56:37.155Z,12.60
2023-04-16T10:59:07.760Z,12.60
2023-04-16T11:01:35.870Z,12.50
2023-04-16T11:04:21.301Z,12.50
2023-04-16T11:07:07.383Z,12.50
2023-04-16T11:09:52.625Z,12.40
2023-04-16T11:12:19.553Z,12.40
2023-04-16T11:14:47.812Z,12.40
2023-04-16T11:17:14.742Z,12.40
2023-04-16T11:19:42.693Z,12.40
2023-04-16T11:22:12.058Z,12.50
2023-04-16T11:24:41.067Z,12.50
2023-04-16T11:27:08.110Z,12.60
2023-04-16T11:29:35.362Z,12.70
2023-04-16T11:32:02.565Z,12.90
2023-04-16T11:34:29.539Z,13.00
2023-04-16T11:36:56.934Z,13.20
2023-04-16T11:39:23.844Z,13.40
2023-04-16T11:41:52.471Z,13.70
2023-04-16T11:44:23.925Z,13.90
2023-04-16T11:46:58.006Z,14.10
2023-04-16T11:49:28.928Z,14.20
2023-04-16T11:51:56.723Z,14.40
2023-04-16T11:54:24.176Z,14.50
2023-04-16T11:56:52.053Z,14.50
2023-04-16T11:59:20.520Z,14.50
2023-04-16T12:01:49.222Z,14.60
2023-04-16T12:04:17.781Z,14.60
2023-04-16T12:07:03.454Z,14.50
2023-04-16T12:09:30.600Z,14.40
2023-04-16T12:11:58.168Z,14.30
2023-04-16T12:14:25.056Z,14.30
2023-04-16T12:16:53.200Z,14.20
2023-04-16T12:19:21.533Z,14.10
2023-04-16T12:21:49.550Z,14.00
2023-04-16T12:24:17.552Z,13.90
2023-04-16T12:26:45.424Z,13.80
2023-04-16T12:29:22.867Z,13.70
2023-04-16T12:31:50.546Z,13.60
2023-04-16T12:34:17.845Z,13.60
2023-04-16T12:36:45.142Z,13.50
2023-04-16T12:39:12.294Z,13.50
2023-04-16T12:41:39.951Z,13.40
2023-04-16T12:44:14.055Z,13.30
2023-04-16T12:46:41.838Z,13.30
2023-04-16T12:49:09.408Z,13.20
2023-04-16T12:51:37.124Z,13.10
2023-04-16T12:54:05.615Z,13.10
2023-04-16T12:56:33.385Z,13.00
2023-04-16T12:59:00.345Z,13.00
2023-04-16T13:01:27.302Z,12.90
2023-04-16T13:03:54.581Z,12.90
2023-04-16T13:06:21.565Z,12.80
2023-04-16T13:08:48.512Z,12.80
2023-04-16T13:11:15.757Z,12.80
2023-04-16T13:13:42.759Z,12.80
2023-04-16T13:16:09.764Z,12.80
2023-04-16T13:18:37.507Z,12.80
2023-04-16T13:21:04.771Z,12.80
2023-04-16T13:23:31.833Z,12.80
2023-04-16T13:25:58.781Z,12.80
2023-04-16T13:28:25.872Z,12.70
2023-04-16T13:30:53.300Z,12.70
2023-04-16T13:33:21.251Z,12.60
2023-04-16T13:35:49.208Z,12.70
2023-04-16T13:38:16.329Z,12.60
2023-04-16T13:40:43.310Z,12.60
2023-04-16T13:43:10.267Z,12.60
2023-04-16T13:45:38.171Z,12.70
2023-04-16T13:48:05.650Z,12.60
2023-04-16T13:50:32.553Z,12.60
2023-04-16T13:52:59.421Z,12.60
2023-04-16T13:55:26.510Z,12.50
2023-04-16T13:57:53.541Z,12.50
2023-04-16T14:00:20.515Z,12.50
2023-04-16T14:02:48.954Z,12.50
2023-04-16T14:05:16.071Z,12.40
2023-04-16T14:07:43.105Z,12.40
2023-04-16T14:10:10.384Z,12.40
2023-04-16T14:12:38.320Z,12.40
2023-04-16T14:15:09.663Z,12.30
2023-04-16T14:17:39.690Z,12.30
2023-04-16T14:20:07.012Z,12.30
2023-04-16T14:22:33.947Z,12.20
2023-04-16T14:25:01.154Z,12.20
2023-04-16T14:27:28.767Z,12.20
2023-04-16T14:29:55.660Z,12.20
2023-04-16T14:32:22.689Z,12.20
2023-04-16T14:34:50.065Z,12.20
2023-04-16T14:37:17.875Z,12.20
2023-04-16T14:39:44.958Z,12.30
2023-04-16T14:42:11.872Z,12.30
2023-04-16T14:44:38.712Z,12.30
2023-04-16T14:47:06.016Z,12.30
2023-04-16T14:49:33.418Z,12.40
2023-04-16T14:52:02.260Z,12.40
2023-04-16T14:54:29.260Z,12.40
2023-04-16T14:56:56.814Z,12.50
2023-04-16T14:59:23.732Z,12.50
2023-04-16T15:01:51.444Z,12.50
2023-04-16T15:04:18.571Z,12.40
2023-04-16T15:06:46.625Z,12.50
2023-04-16T15:09:13.956Z,12.50
2023-04-16T15:11:41.060Z,12.50
2023-04-16T15:14:08.232Z,12.50
2023-04-16T15:16:35.459Z,12.50
2023-04-16T15:19:04.864Z,12.50
2023-04-16T15:21:32.175Z,12.50
2023-04-16T15:23:59.309Z,12.50
2023-04-16T15:26:26.300Z,12.50
2023-04-16T15:28:53.375Z,12.50
2023-04-16T15:31:21.079Z,12.50
2023-04-16T15:33:48.345Z,12.50
2023-04-16T15:36:16.384Z,12.50
2023-04-16T15:38:43.469Z,12.40
2023-04-16T15:41:11.120Z,12.50
2023-04-16T15:43:38.285Z,12.40
2023-04-16T15:46:05.486Z,12.40
2023-04-16T15:48:32.744Z,12.40
2023-04-16T15:51:00.194Z,12.40
2023-04-16T15:53:27.149Z,12.40
2023-04-16T15:55:54.646Z,12.40
2023-04-16T15:58:21.531Z,12.30
2023-04-16T16:00:50.018Z,12.30
2023-04-16T16:03:18.017Z,12.40
2023-04-16T16:05:48.457Z,12.40
2023-04-16T16:08:15.798Z,12.40
2023-04-16T16:10:44.787Z,12.40
2023-04-16T16:13:14.206Z,12.40
2023-04-16T16:15:41.531Z,12.40
2023-04-16T16:18:08.582Z,12.40
2023-04-16T16:20:36.731Z,12.50
2023-04-16T16:23:03.711Z,12.50
2023-04-16T16:25:30.785Z,12.50
2023-04-16T16:27:58.931Z,12.50
2023-04-16T16:30:27.271Z,12.50
2023-04-16T16:32:54.280Z,12.50
2023-04-16T16:35:22.118Z,12.50
2023-04-16T16:37:49.175Z,12.50
2023-04-16T16:40:16.521Z,12.50
2023-04-16T16:42:43.477Z,12.50
2023-04-16T16:45:10.903Z,12.50
2023-04-16T16:47:37.853Z,12.50
2023-04-16T16:50:05.590Z,12.50
2023-04-16T16:52:32.504Z,12.50
2023-04-16T16:54:59.517Z,12.50
2023-04-16T16:57:26.515Z,12.50
2023-04-16T16:59:54.535Z,12.50
2023-04-16T17:02:21.625Z,12.50
2023-04-16T17:04:48.694Z,12.50
2023-04-16T17:07:15.607Z,12.50
2023-04-16T17:09:42.586Z,12.50
2023-04-16T17:12:10.617Z,12.50
2023-04-16T17:14:37.520Z,12.50
2023-04-16T17:17:04.513Z,12.50
2023-04-16T17:19:31.673Z,12.50
2023-04-16T17:21:58.652Z,12.40
2023-04-16T17:24:25.806Z,12.50
2023-04-16T17:26:52.738Z,12.50
2023-04-16T17:29:20.903Z,12.40
2023-04-16T17:31:47.936Z,12.40
2023-04-16T17:34:14.854Z,12.40
2023-04-16T17:36:41.817Z,12.40
2023-04-16T17:39:08.709Z,12.40
2023-04-16T17:41:35.769Z,12.40
2023-04-16T17:44:02.687Z,12.40
2023-04-16T17:46:29.876Z,12.40
2023-04-16T17:48:56.880Z,12.40
2023-04-16T17:51:23.748Z,12.40
2023-04-16T17:53:52.084Z,12.40
2023-04-16T17:56:18.958Z,12.40
2023-04-16T17:58:45.880Z,12.50
2023-04-16T18:01:12.918Z,12.40
2023-04-16T18:03:40.131Z,12.40
2023-04-16T18:06:07.315Z,12.40
2023-04-16T18:08:36.656Z,12.40
2023-04-16T18:11:07.848Z,12.40
2023-04-16T18:13:35.294Z,12.40
2023-04-16T18:16:02.640Z,12.40
2023-04-16T18:18:29.655Z,12.40
2023-04-16T18:20:56.637Z,12.40
2023-04-16T18:23:23.665Z,12.40
2023-04-16T18:25:50.719Z,12.40
2023-04-16T18:28:17.713Z,12.40
2023-04-16T18:30:44.898Z,12.30
2023-04-16T18:33:39.012Z,12.30
2023-04-16T18:36:02.393Z,12.30
2023-04-16T18:38:31.394Z,12.30
2023-04-16T18:40:58.721Z,12.30
2023-04-16T18:43:25.772Z,12.30
2023-04-16T18:45:53.202Z,12.30
2023-04-16T18:48:20.300Z,12.30
2023-04-16T18:50:47.606Z,12.30
2023-04-16T18:53:14.619Z,12.30
2023-04-16T18:55:41.550Z,12.30
2023-04-16T18:58:08.541Z,12.20
2023-04-16T19:00:35.583Z,12.20
2023-04-16T19:03:07.011Z,12.20
2023-04-16T19:05:34.302Z,12.20
2023-04-16T19:08:01.485Z,12.10
2023-04-16T19:10:28.701Z,12.10
2023-04-16T19:12:58.613Z,12.10
2023-04-16T19:15:25.591Z,12.10
2023-04-16T19:17:52.526Z,12.10
2023-04-16T19:20:20.253Z,12.10
2023-04-16T19:22:47.139Z,12.10
2023-04-16T19:25:14.126Z,12.00
2023-04-16T19:27:41.194Z,12.00
2023-04-16T19:30:08.641Z,12.00
2023-04-16T19:32:35.711Z,12.00
2023-04-16T19:35:03.323Z,12.00
2023-04-16T19:37:30.507Z,12.00
2023-04-16T19:39:57.497Z,12.00
2023-04-16T19:42:24.354Z,12.00
2023-04-16T19:44:52.762Z,11.90
2023-04-16T19:47:20.118Z,11.90
2023-04-16T19:49:47.055Z,11.90
2023-04-16T19:52:14.119Z,11.90
2023-04-16T19:54:41.030Z,11.90
2023-04-16T19:57:08.030Z,11.90
2023-04-16T19:59:35.284Z,11.90
2023-04-16T20:02:02.841Z,11.90
2023-04-16T20:04:30.938Z,11.90
2023-04-16T20:06:58.584Z,11.90
2023-04-16T20:09:25.915Z,11.90
2023-04-16T20:11:53.002Z,12.00
2023-04-16T20:14:19.955Z,11.90
2023-04-16T20:16:47.050Z,11.90
2023-04-16T20:19:18.804Z,12.00
2023-04-16T20:21:46.099Z,11.90
2023-04-16T20:24:15.374Z,11.90
2023-04-16T20:26:43.324Z,11.90
2023-04-16T20:29:10.768Z,11.90
2023-04-16T20:31:37.860Z,12.00
2023-04-16T20:34:07.324Z,11.90
2023-04-16T20:36:34.696Z,12.00
2023-04-16T20:39:07.260Z,11.90
2023-04-16T20:41:34.355Z,12.00
2023-04-16T20:44:05.702Z,11.90
2023-04-16T20:46:36.271Z,11.90
2023-04-16T20:49:03.327Z,11.90
2023-04-16T20:51:30.305Z,11.90
2023-04-16T20:53:57.272Z,11.90
2023-04-16T20:56:24.209Z,11.90
2023-04-16T20:58:53.227Z,11.90
2023-04-16T21:01:52.570Z,11.90
2023-04-16T21:04:39.936Z,11.90
2023-04-16T21:07:07.353Z,11.90
2023-04-16T21:09:34.650Z,11.90
2023-04-16T21:12:01.906Z,11.90
2023-04-16T21:14:29.036Z,11.90
2023-04-16T21:16:56.034Z,11.90
2023-04-16T21:19:23.104Z,11.90
2023-04-16T21:21:50.238Z,11.90
2023-04-16T21:24:17.214Z,11.90
2023-04-16T21:26:44.238Z,11.90
2023-04-16T21:29:11.549Z,11.90
2023-04-16T21:31:38.850Z,11.90
2023-04-16T21:34:09.417Z,11.90
2023-04-16T21:36:36.328Z,11.90
2023-04-16T21:39:03.264Z,12.00
2023-04-16T21:41:30.200Z,11.90
2023-04-16T21:43:57.172Z,12.00
2023-04-16T21:46:25.492Z,11.90
2023-04-16T21:48:55.875Z,11.90
2023-04-16T21:51:29.223Z,12.00
2023-04-16T21:53:56.702Z,12.00
2023-04-16T21:56:27.184Z,11.90
2023-04-16T21:58:54.101Z,11.90
2023-04-16T22:01:21.034Z,12.00
2023-04-16T22:03:50.836Z,12.00
2023-04-16T22:06:17.976Z,12.00
2023-04-16T22:08:45.079Z,12.00
2023-04-16T22:11:12.172Z,12.00
2023-04-16T22:13:42.173Z,12.00
2023-04-16T22:16:12.081Z,12.00
2023-04-16T22:18:41.070Z,12.00
2023-04-16T22:21:08.015Z,12.00
2023-04-16T22:23:34.957Z,12.00
2023-04-16T22:26:02.760Z,12.00
2023-04-16T22:28:30.002Z,12.00
2023-04-16T22:30:57.320Z,12.00
2023-04-16T22:33:24.430Z,12.00
2023-04-16T22:35:51.367Z,12.00
2023-04-16T22:38:18.425Z,11.90
2023-04-16T22:40:47.349Z,12.00
2023-04-16T22:43:14.391Z,11.90
2023-04-16T22:45:41.397Z,11.90
2023-04-16T22:48:08.697Z,11.90
2023-04-16T22:50:35.707Z,11.90
2023-04-16T22:53:02.691Z,11.90
2023-04-16T22:55:29.593Z,11.90
2023-04-16T22:57:56.793Z,11.90
2023-04-16T23:00:24.996Z,11.90
2023-04-16T23:02:52.095Z,11.90
2023-04-16T23:05:19.858Z,11.90
2023-04-16T23:07:47.266Z,11.90
2023-04-16T23:10:14.911Z,11.90
2023-04-16T23:12:41.877Z,11.90
2023-04-16T23:15:08.987Z,11.90
2023-04-16T23:17:36.088Z,11.90
2023-04-16T23:20:05.703Z,11.90
2023-04-16T23:22:32.613Z,11.90
2023-04-16T23:24:59.550Z,11.90
2023-04-16T23:27:26.481Z,11.80
2023-04-16T23:29:53.566Z,11.90
2023-04-16T23:32:20.518Z,11.90
2023-04-16T23:34:47.577Z,11.90
2023-04-16T23:37:14.480Z,11.90
2023-04-16T23:39:41.608Z,11.90
2023-04-16T23:42:08.662Z,11.90
2023-04-16T23:44:35.795Z,11.90
2023-04-16T23:47:02.876Z,11.90
2023-04-16T23:49:29.814Z,11.90
2023-04-16T23:51:56.716Z,11.90
2023-04-16T23:54:24.313Z,11.90
2023-04-16T23:56:51.658Z,11.90
2023-04-16T23:59:18.962Z,11.90
